sensor_id;sensor_type;location;lat;lon;timestamp;P1;durP1;ratioP1;P2;durP2;ratioP2
52508;SDS011;38420;53.150;6.370;2023-04-24T00:01:28;13.93;;;8.52;;
52508;SDS011;38420;53.150;6.370;2023-04-24T00:03:54;11.10;;;9.25;;
52508;SDS011;38420;53.150;6.370;2023-04-24T00:06:24;11.50;;;8.77;;
52508;SDS011;38420;53.150;6.370;2023-04-24T00:08:57;11.23;;;8.57;;
52508;SDS011;38420;53.150;6.370;2023-04-24T00:11:26;10.80;;;8.02;;
52508;SDS011;38420;53.150;6.370;2023-04-24T00:13:52;12.15;;;8.73;;
52508;SDS011;38420;53.150;6.370;2023-04-24T00:16:18;12.75;;;8.38;;
52508;SDS011;38420;53.150;6.370;2023-04-24T00:18:44;12.55;;;8.57;;
52508;SDS011;38420;53.150;6.370;2023-04-24T00:21:13;10.77;;;8.40;;
52508;SDS011;38420;53.150;6.370;2023-04-24T00:23:40;14.23;;;9.55;;
52508;SDS011;38420;53.150;6.370;2023-04-24T00:26:05;9.55;;;7.97;;
52508;SDS011;38420;53.150;6.370;2023-04-24T00:28:31;14.85;;;8.95;;
52508;SDS011;38420;53.150;6.370;2023-04-24T00:30:56;10.20;;;8.15;;
52508;SDS011;38420;53.150;6.370;2023-04-24T00:33:22;11.30;;;7.45;;
52508;SDS011;38420;53.150;6.370;2023-04-24T00:35:47;7.10;;;5.35;;
52508;SDS011;38420;53.150;6.370;2023-04-24T00:38:13;8.93;;;6.00;;
52508;SDS011;38420;53.150;6.370;2023-04-24T00:40:39;6.05;;;3.85;;
52508;SDS011;38420;53.150;6.370;2023-04-24T00:43:04;4.50;;;3.35;;
52508;SDS011;38420;53.150;6.370;2023-04-24T00:45:30;5.43;;;4.25;;
52508;SDS011;38420;53.150;6.370;2023-04-24T00:47:56;5.07;;;3.72;;
52508;SDS011;38420;53.150;6.370;2023-04-24T00:50:23;3.72;;;3.28;;
52508;SDS011;38420;53.150;6.370;2023-04-24T00:52:50;4.45;;;3.40;;
52508;SDS011;38420;53.150;6.370;2023-04-24T00:55:16;4.28;;;2.83;;
52508;SDS011;38420;53.150;6.370;2023-04-24T00:57:42;4.55;;;2.72;;
52508;SDS011;38420;53.150;6.370;2023-04-24T01:00:09;4.47;;;3.47;;
52508;SDS011;38420;53.150;6.370;2023-04-24T01:02:36;3.90;;;3.10;;
52508;SDS011;38420;53.150;6.370;2023-04-24T01:05:06;5.00;;;3.20;;
52508;SDS011;38420;53.150;6.370;2023-04-24T01:07:33;4.30;;;2.83;;
52508;SDS011;38420;53.150;6.370;2023-04-24T01:09:59;3.55;;;3.15;;
52508;SDS011;38420;53.150;6.370;2023-04-24T01:12:25;4.18;;;3.42;;
52508;SDS011;38420;53.150;6.370;2023-04-24T01:14:50;5.30;;;3.80;;
52508;SDS011;38420;53.150;6.370;2023-04-24T01:17:16;5.97;;;3.78;;
52508;SDS011;38420;53.150;6.370;2023-04-24T01:19:42;5.65;;;3.53;;
52508;SDS011;38420;53.150;6.370;2023-04-24T01:22:10;6.25;;;3.85;;
52508;SDS011;38420;53.150;6.370;2023-04-24T01:24:37;6.45;;;4.07;;
52508;SDS011;38420;53.150;6.370;2023-04-24T01:27:03;4.70;;;3.72;;
52508;SDS011;38420;53.150;6.370;2023-04-24T01:29:29;6.78;;;3.88;;
52508;SDS011;38420;53.150;6.370;2023-04-24T01:31:55;4.20;;;3.33;;
52508;SDS011;38420;53.150;6.370;2023-04-24T01:34:21;5.63;;;3.70;;
52508;SDS011;38420;53.150;6.370;2023-04-24T01:36:46;4.40;;;3.60;;
52508;SDS011;38420;53.150;6.370;2023-04-24T01:39:12;4.78;;;3.60;;
52508;SDS011;38420;53.150;6.370;2023-04-24T01:41:38;4.40;;;3.75;;
52508;SDS011;38420;53.150;6.370;2023-04-24T01:44:04;6.30;;;3.92;;
52508;SDS011;38420;53.150;6.370;2023-04-24T01:46:30;5.20;;;3.53;;
52508;SDS011;38420;53.150;6.370;2023-04-24T01:48:56;5.43;;;3.92;;
52508;SDS011;38420;53.150;6.370;2023-04-24T01:51:25;5.00;;;4.38;;
52508;SDS011;38420;53.150;6.370;2023-04-24T01:53:51;4.43;;;3.90;;
52508;SDS011;38420;53.150;6.370;2023-04-24T01:56:16;6.43;;;4.10;;
52508;SDS011;38420;53.150;6.370;2023-04-24T01:58:42;6.65;;;4.65;;
52508;SDS011;38420;53.150;6.370;2023-04-24T02:01:08;5.82;;;4.88;;
52508;SDS011;38420;53.150;6.370;2023-04-24T02:03:34;5.85;;;5.10;;
52508;SDS011;38420;53.150;6.370;2023-04-24T02:06:00;6.80;;;5.10;;
52508;SDS011;38420;53.150;6.370;2023-04-24T02:08:25;6.93;;;4.90;;
52508;SDS011;38420;53.150;6.370;2023-04-24T02:10:51;6.28;;;5.63;;
52508;SDS011;38420;53.150;6.370;2023-04-24T02:13:16;7.07;;;6.10;;
52508;SDS011;38420;53.150;6.370;2023-04-24T02:15:42;7.05;;;5.95;;
52508;SDS011;38420;53.150;6.370;2023-04-24T02:18:07;8.57;;;6.07;;
52508;SDS011;38420;53.150;6.370;2023-04-24T02:20:33;7.75;;;5.90;;
52508;SDS011;38420;53.150;6.370;2023-04-24T02:23:00;8.02;;;6.30;;
52508;SDS011;38420;53.150;6.370;2023-04-24T02:25:26;7.80;;;6.57;;
52508;SDS011;38420;53.150;6.370;2023-04-24T02:27:52;10.05;;;7.13;;
52508;SDS011;38420;53.150;6.370;2023-04-24T02:30:17;8.85;;;6.97;;
52508;SDS011;38420;53.150;6.370;2023-04-24T02:32:43;9.23;;;6.80;;
52508;SDS011;38420;53.150;6.370;2023-04-24T02:35:08;10.15;;;8.07;;
52508;SDS011;38420;53.150;6.370;2023-04-24T02:37:34;10.40;;;7.45;;
52508;SDS011;38420;53.150;6.370;2023-04-24T02:40:00;11.88;;;7.95;;
52508;SDS011;38420;53.150;6.370;2023-04-24T02:42:25;11.23;;;8.75;;
52508;SDS011;38420;53.150;6.370;2023-04-24T02:44:51;11.10;;;8.45;;
52508;SDS011;38420;53.150;6.370;2023-04-24T02:47:17;11.77;;;9.18;;
52508;SDS011;38420;53.150;6.370;2023-04-24T02:49:42;11.20;;;9.00;;
52508;SDS011;38420;53.150;6.370;2023-04-24T02:52:08;14.63;;;10.55;;
52508;SDS011;38420;53.150;6.370;2023-04-24T02:54:33;13.13;;;10.15;;
52508;SDS011;38420;53.150;6.370;2023-04-24T02:56:59;13.05;;;10.93;;
52508;SDS011;38420;53.150;6.370;2023-04-24T02:59:26;16.77;;;11.68;;
52508;SDS011;38420;53.150;6.370;2023-04-24T03:01:53;14.65;;;11.10;;
52508;SDS011;38420;53.150;6.370;2023-04-24T03:04:19;18.08;;;11.73;;
52508;SDS011;38420;53.150;6.370;2023-04-24T03:06:45;15.63;;;11.52;;
52508;SDS011;38420;53.150;6.370;2023-04-24T03:09:11;16.77;;;12.13;;
52508;SDS011;38420;53.150;6.370;2023-04-24T03:11:36;17.33;;;12.10;;
52508;SDS011;38420;53.150;6.370;2023-04-24T03:14:02;16.55;;;12.30;;
52508;SDS011;38420;53.150;6.370;2023-04-24T03:16:27;19.73;;;13.25;;
52508;SDS011;38420;53.150;6.370;2023-04-24T03:18:53;19.75;;;13.73;;
52508;SDS011;38420;53.150;6.370;2023-04-24T03:21:19;20.15;;;13.88;;
52508;SDS011;38420;53.150;6.370;2023-04-24T03:23:45;21.85;;;14.20;;
52508;SDS011;38420;53.150;6.370;2023-04-24T03:26:10;20.00;;;14.27;;
52508;SDS011;38420;53.150;6.370;2023-04-24T03:28:36;22.80;;;14.25;;
52508;SDS011;38420;53.150;6.370;2023-04-24T03:31:02;20.70;;;13.70;;
52508;SDS011;38420;53.150;6.370;2023-04-24T03:33:28;21.63;;;14.55;;
52508;SDS011;38420;53.150;6.370;2023-04-24T03:35:54;20.88;;;14.25;;
52508;SDS011;38420;53.150;6.370;2023-04-24T03:38:19;22.40;;;14.43;;
52508;SDS011;38420;53.150;6.370;2023-04-24T03:40:45;23.40;;;15.75;;
52508;SDS011;38420;53.150;6.370;2023-04-24T03:43:11;25.35;;;16.38;;
52508;SDS011;38420;53.150;6.370;2023-04-24T03:45:36;26.42;;;16.48;;
52508;SDS011;38420;53.150;6.370;2023-04-24T03:48:02;27.05;;;17.38;;
52508;SDS011;38420;53.150;6.370;2023-04-24T03:50:27;24.40;;;15.93;;
52508;SDS011;38420;53.150;6.370;2023-04-24T03:52:54;27.05;;;17.10;;
52508;SDS011;38420;53.150;6.370;2023-04-24T03:55:20;26.58;;;18.13;;
52508;SDS011;38420;53.150;6.370;2023-04-24T03:57:45;26.30;;;18.52;;
52508;SDS011;38420;53.150;6.370;2023-04-24T04:00:11;28.45;;;18.55;;
52508;SDS011;38420;53.150;6.370;2023-04-24T04:02:37;29.10;;;19.92;;
52508;SDS011;38420;53.150;6.370;2023-04-24T04:05:02;30.65;;;20.75;;
52508;SDS011;38420;53.150;6.370;2023-04-24T04:07:28;29.92;;;20.27;;
52508;SDS011;38420;53.150;6.370;2023-04-24T04:09:54;31.15;;;18.85;;
52508;SDS011;38420;53.150;6.370;2023-04-24T04:12:20;29.23;;;20.38;;
52508;SDS011;38420;53.150;6.370;2023-04-24T04:14:46;29.85;;;21.33;;
52508;SDS011;38420;53.150;6.370;2023-04-24T04:17:11;34.95;;;22.35;;
52508;SDS011;38420;53.150;6.370;2023-04-24T04:19:37;35.72;;;22.58;;
52508;SDS011;38420;53.150;6.370;2023-04-24T04:22:02;31.50;;;21.45;;
52508;SDS011;38420;53.150;6.370;2023-04-24T04:24:28;31.00;;;21.60;;
52508;SDS011;38420;53.150;6.370;2023-04-24T04:26:54;30.52;;;21.00;;
52508;SDS011;38420;53.150;6.370;2023-04-24T04:29:21;32.03;;;22.65;;
52508;SDS011;38420;53.150;6.370;2023-04-24T04:31:47;33.85;;;21.27;;
52508;SDS011;38420;53.150;6.370;2023-04-24T04:34:13;31.83;;;21.92;;
52508;SDS011;38420;53.150;6.370;2023-04-24T04:36:39;14.18;;;9.85;;
52508;SDS011;38420;53.150;6.370;2023-04-24T04:39:05;17.17;;;11.35;;
52508;SDS011;38420;53.150;6.370;2023-04-24T04:41:31;14.63;;;9.90;;
52508;SDS011;38420;53.150;6.370;2023-04-24T04:44:00;11.38;;;7.82;;
52508;SDS011;38420;53.150;6.370;2023-04-24T04:46:26;10.50;;;6.97;;
52508;SDS011;38420;53.150;6.370;2023-04-24T04:48:52;11.60;;;6.15;;
52508;SDS011;38420;53.150;6.370;2023-04-24T04:51:18;7.50;;;5.03;;
52508;SDS011;38420;53.150;6.370;2023-04-24T04:53:44;8.45;;;5.22;;
52508;SDS011;38420;53.150;6.370;2023-04-24T04:56:09;6.97;;;4.40;;
52508;SDS011;38420;53.150;6.370;2023-04-24T04:58:35;7.47;;;4.30;;
52508;SDS011;38420;53.150;6.370;2023-04-24T05:01:01;6.70;;;3.92;;
52508;SDS011;38420;53.150;6.370;2023-04-24T05:03:27;4.35;;;3.33;;
52508;SDS011;38420;53.150;6.370;2023-04-24T05:05:52;3.80;;;2.97;;
52508;SDS011;38420;53.150;6.370;2023-04-24T05:08:18;4.70;;;2.78;;
52508;SDS011;38420;53.150;6.370;2023-04-24T05:10:44;5.38;;;3.92;;
52508;SDS011;38420;53.150;6.370;2023-04-24T05:13:09;4.20;;;3.17;;
52508;SDS011;38420;53.150;6.370;2023-04-24T05:15:35;4.47;;;3.45;;
52508;SDS011;38420;53.150;6.370;2023-04-24T05:18:00;4.95;;;3.33;;
52508;SDS011;38420;53.150;6.370;2023-04-24T05:20:26;5.18;;;3.55;;
52508;SDS011;38420;53.150;6.370;2023-04-24T05:22:52;4.60;;;3.45;;
52508;SDS011;38420;53.150;6.370;2023-04-24T05:25:17;6.45;;;4.03;;
52508;SDS011;38420;53.150;6.370;2023-04-24T05:27:43;9.27;;;4.70;;
52508;SDS011;38420;53.150;6.370;2023-04-24T05:30:09;7.72;;;4.78;;
52508;SDS011;38420;53.150;6.370;2023-04-24T05:32:35;7.88;;;4.78;;
52508;SDS011;38420;53.150;6.370;2023-04-24T05:35:01;9.50;;;5.18;;
52508;SDS011;38420;53.150;6.370;2023-04-24T05:37:26;8.55;;;5.10;;
52508;SDS011;38420;53.150;6.370;2023-04-24T05:39:52;7.10;;;4.32;;
52508;SDS011;38420;53.150;6.370;2023-04-24T05:42:18;6.15;;;3.83;;
52508;SDS011;38420;53.150;6.370;2023-04-24T05:44:43;6.78;;;3.90;;
52508;SDS011;38420;53.150;6.370;2023-04-24T05:47:09;5.28;;;3.45;;
52508;SDS011;38420;53.150;6.370;2023-04-24T05:49:34;7.22;;;3.60;;
52508;SDS011;38420;53.150;6.370;2023-04-24T05:52:00;6.78;;;4.90;;
52508;SDS011;38420;53.150;6.370;2023-04-24T05:54:26;8.13;;;5.15;;
52508;SDS011;38420;53.150;6.370;2023-04-24T05:56:51;8.02;;;5.80;;
52508;SDS011;38420;53.150;6.370;2023-04-24T05:59:19;11.32;;;5.88;;
52508;SDS011;38420;53.150;6.370;2023-04-24T06:01:45;9.73;;;5.93;;
52508;SDS011;38420;53.150;6.370;2023-04-24T06:04:11;11.07;;;5.70;;
52508;SDS011;38420;53.150;6.370;2023-04-24T06:06:38;10.65;;;6.60;;
52508;SDS011;38420;53.150;6.370;2023-04-24T06:09:04;8.70;;;6.47;;
52508;SDS011;38420;53.150;6.370;2023-04-24T06:11:30;9.48;;;6.20;;
52508;SDS011;38420;53.150;6.370;2023-04-24T06:13:55;9.57;;;6.45;;
52508;SDS011;38420;53.150;6.370;2023-04-24T06:16:21;12.25;;;6.53;;
52508;SDS011;38420;53.150;6.370;2023-04-24T06:18:46;9.52;;;6.55;;
52508;SDS011;38420;53.150;6.370;2023-04-24T06:21:12;10.73;;;7.00;;
52508;SDS011;38420;53.150;6.370;2023-04-24T06:23:38;9.75;;;7.35;;
52508;SDS011;38420;53.150;6.370;2023-04-24T06:26:03;13.90;;;7.65;;
52508;SDS011;38420;53.150;6.370;2023-04-24T06:28:29;11.23;;;6.68;;
52508;SDS011;38420;53.150;6.370;2023-04-24T06:30:55;10.85;;;6.85;;
52508;SDS011;38420;53.150;6.370;2023-04-24T06:33:20;9.80;;;6.68;;
52508;SDS011;38420;53.150;6.370;2023-04-24T06:35:46;10.93;;;7.25;;
52508;SDS011;38420;53.150;6.370;2023-04-24T06:38:12;9.85;;;7.03;;
52508;SDS011;38420;53.150;6.370;2023-04-24T06:40:37;8.88;;;6.55;;
52508;SDS011;38420;53.150;6.370;2023-04-24T06:43:03;8.50;;;5.38;;
52508;SDS011;38420;53.150;6.370;2023-04-24T06:45:30;9.88;;;5.75;;
52508;SDS011;38420;53.150;6.370;2023-04-24T06:47:55;8.50;;;5.18;;
52508;SDS011;38420;53.150;6.370;2023-04-24T06:50:21;13.45;;;4.57;;
52508;SDS011;38420;53.150;6.370;2023-04-24T06:52:47;9.15;;;4.50;;
52508;SDS011;38420;53.150;6.370;2023-04-24T06:55:12;11.60;;;4.43;;
52508;SDS011;38420;53.150;6.370;2023-04-24T06:57:40;5.55;;;4.13;;
52508;SDS011;38420;53.150;6.370;2023-04-24T07:00:06;8.38;;;4.88;;
52508;SDS011;38420;53.150;6.370;2023-04-24T07:02:34;4.93;;;3.42;;
52508;SDS011;38420;53.150;6.370;2023-04-24T07:05:00;6.45;;;3.45;;
52508;SDS011;38420;53.150;6.370;2023-04-24T07:07:26;8.75;;;3.63;;
52508;SDS011;38420;53.150;6.370;2023-04-24T07:09:52;4.43;;;3.63;;
52508;SDS011;38420;53.150;6.370;2023-04-24T07:12:19;9.57;;;4.18;;
52508;SDS011;38420;53.150;6.370;2023-04-24T07:14:46;7.32;;;4.00;;
52508;SDS011;38420;53.150;6.370;2023-04-24T07:17:12;8.07;;;4.05;;
52508;SDS011;38420;53.150;6.370;2023-04-24T07:19:38;8.27;;;4.00;;
52508;SDS011;38420;53.150;6.370;2023-04-24T07:22:03;8.70;;;4.10;;
52508;SDS011;38420;53.150;6.370;2023-04-24T07:24:29;5.75;;;3.22;;
52508;SDS011;38420;53.150;6.370;2023-04-24T07:26:57;5.10;;;2.63;;
52508;SDS011;38420;53.150;6.370;2023-04-24T07:29:23;5.18;;;2.95;;
52508;SDS011;38420;53.150;6.370;2023-04-24T07:31:49;6.10;;;2.35;;
52508;SDS011;38420;53.150;6.370;2023-04-24T07:34:14;6.45;;;2.80;;
52508;SDS011;38420;53.150;6.370;2023-04-24T07:36:40;5.90;;;3.10;;
52508;SDS011;38420;53.150;6.370;2023-04-24T07:39:06;9.48;;;5.15;;
52508;SDS011;38420;53.150;6.370;2023-04-24T07:41:32;10.10;;;5.50;;
52508;SDS011;38420;53.150;6.370;2023-04-24T07:43:58;12.50;;;5.93;;
52508;SDS011;38420;53.150;6.370;2023-04-24T07:46:24;17.23;;;10.25;;
52508;SDS011;38420;53.150;6.370;2023-04-24T07:48:50;19.23;;;11.30;;
52508;SDS011;38420;53.150;6.370;2023-04-24T07:51:15;22.42;;;12.68;;
52508;SDS011;38420;53.150;6.370;2023-04-24T07:53:42;22.15;;;12.15;;
52508;SDS011;38420;53.150;6.370;2023-04-24T07:56:08;25.33;;;14.10;;
52508;SDS011;38420;53.150;6.370;2023-04-24T07:58:34;31.88;;;15.82;;
52508;SDS011;38420;53.150;6.370;2023-04-24T08:00:59;30.25;;;16.17;;
52508;SDS011;38420;53.150;6.370;2023-04-24T08:03:25;30.92;;;15.68;;
52508;SDS011;38420;53.150;6.370;2023-04-24T08:05:51;28.38;;;15.57;;
52508;SDS011;38420;53.150;6.370;2023-04-24T08:08:16;31.08;;;16.77;;
52508;SDS011;38420;53.150;6.370;2023-04-24T08:10:42;31.63;;;17.23;;
52508;SDS011;38420;53.150;6.370;2023-04-24T08:13:08;31.38;;;18.17;;
52508;SDS011;38420;53.150;6.370;2023-04-24T08:15:36;33.85;;;17.95;;
52508;SDS011;38420;53.150;6.370;2023-04-24T08:18:02;29.63;;;16.95;;
52508;SDS011;38420;53.150;6.370;2023-04-24T08:20:27;26.27;;;16.35;;
52508;SDS011;38420;53.150;6.370;2023-04-24T08:22:53;28.13;;;16.25;;
52508;SDS011;38420;53.150;6.370;2023-04-24T08:25:20;27.67;;;16.20;;
52508;SDS011;38420;53.150;6.370;2023-04-24T08:27:47;28.60;;;16.27;;
52508;SDS011;38420;53.150;6.370;2023-04-24T08:30:13;32.85;;;17.73;;
52508;SDS011;38420;53.150;6.370;2023-04-24T08:32:39;27.63;;;15.73;;
52508;SDS011;38420;53.150;6.370;2023-04-24T08:35:05;24.88;;;15.45;;
52508;SDS011;38420;53.150;6.370;2023-04-24T08:37:30;27.00;;;15.52;;
52508;SDS011;38420;53.150;6.370;2023-04-24T08:39:56;34.15;;;16.23;;
52508;SDS011;38420;53.150;6.370;2023-04-24T08:42:22;26.98;;;15.57;;
52508;SDS011;38420;53.150;6.370;2023-04-24T08:44:48;24.85;;;14.70;;
52508;SDS011;38420;53.150;6.370;2023-04-24T08:47:14;31.73;;;15.50;;
52508;SDS011;38420;53.150;6.370;2023-04-24T08:49:40;28.73;;;16.08;;
52508;SDS011;38420;53.150;6.370;2023-04-24T08:52:07;25.23;;;14.30;;
52508;SDS011;38420;53.150;6.370;2023-04-24T08:54:35;27.63;;;15.23;;
52508;SDS011;38420;53.150;6.370;2023-04-24T08:57:01;28.83;;;14.75;;
52508;SDS011;38420;53.150;6.370;2023-04-24T08:59:29;24.63;;;14.02;;
52508;SDS011;38420;53.150;6.370;2023-04-24T09:01:59;21.83;;;12.57;;
52508;SDS011;38420;53.150;6.370;2023-04-24T09:04:25;23.77;;;14.43;;
52508;SDS011;38420;53.150;6.370;2023-04-24T09:06:55;20.17;;;11.82;;
52508;SDS011;38420;53.150;6.370;2023-04-24T09:09:23;18.93;;;10.37;;
52508;SDS011;38420;53.150;6.370;2023-04-24T09:11:50;16.27;;;10.02;;
52508;SDS011;38420;53.150;6.370;2023-04-24T09:14:18;19.27;;;9.48;;
52508;SDS011;38420;53.150;6.370;2023-04-24T09:16:45;13.57;;;9.50;;
52508;SDS011;38420;53.150;6.370;2023-04-24T09:19:11;14.85;;;8.95;;
52508;SDS011;38420;53.150;6.370;2023-04-24T09:21:37;17.77;;;9.25;;
52508;SDS011;38420;53.150;6.370;2023-04-24T09:24:05;16.02;;;9.18;;
52508;SDS011;38420;53.150;6.370;2023-04-24T09:26:34;14.93;;;8.82;;
52508;SDS011;38420;53.150;6.370;2023-04-24T09:29:01;14.70;;;8.15;;
52508;SDS011;38420;53.150;6.370;2023-04-24T09:31:28;16.48;;;8.70;;
52508;SDS011;38420;53.150;6.370;2023-04-24T09:33:55;16.58;;;8.23;;
52508;SDS011;38420;53.150;6.370;2023-04-24T09:36:54;18.20;;;7.70;;
52508;SDS011;38420;53.150;6.370;2023-04-24T09:39:13;20.27;;;7.90;;
52508;SDS011;38420;53.150;6.370;2023-04-24T09:41:55;15.40;;;7.30;;
52508;SDS011;38420;53.150;6.370;2023-04-24T09:44:24;13.20;;;6.80;;
52508;SDS011;38420;53.150;6.370;2023-04-24T09:46:54;18.58;;;6.93;;
52508;SDS011;38420;53.150;6.370;2023-04-24T09:49:23;13.80;;;6.50;;
52508;SDS011;38420;53.150;6.370;2023-04-24T09:51:50;15.55;;;6.85;;
52508;SDS011;38420;53.150;6.370;2023-04-24T09:54:17;12.18;;;6.47;;
52508;SDS011;38420;53.150;6.370;2023-04-24T09:56:48;10.10;;;5.43;;
52508;SDS011;38420;53.150;6.370;2023-04-24T09:59:15;10.93;;;5.05;;
52508;SDS011;38420;53.150;6.370;2023-04-24T10:01:42;8.73;;;4.93;;
52508;SDS011;38420;53.150;6.370;2023-04-24T10:06:42;9.40;;;4.18;;
52508;SDS011;38420;53.150;6.370;2023-04-24T10:09:09;11.13;;;4.20;;
52508;SDS011;38420;53.150;6.370;2023-04-24T10:11:37;8.43;;;4.35;;
52508;SDS011;38420;53.150;6.370;2023-04-24T10:14:06;13.18;;;5.00;;
52508;SDS011;38420;53.150;6.370;2023-04-24T10:16:31;11.15;;;4.63;;
52508;SDS011;38420;53.150;6.370;2023-04-24T10:18:58;13.77;;;4.53;;
52508;SDS011;38420;53.150;6.370;2023-04-24T10:21:25;8.93;;;3.90;;
52508;SDS011;38420;53.150;6.370;2023-04-24T10:23:51;11.30;;;3.65;;
52508;SDS011;38420;53.150;6.370;2023-04-24T10:26:18;13.55;;;4.10;;
52508;SDS011;38420;53.150;6.370;2023-04-24T10:28:45;9.65;;;3.22;;
52508;SDS011;38420;53.150;6.370;2023-04-24T10:31:12;10.27;;;3.15;;
52508;SDS011;38420;53.150;6.370;2023-04-24T10:33:42;8.52;;;3.40;;
52508;SDS011;38420;53.150;6.370;2023-04-24T10:36:10;7.47;;;3.20;;
52508;SDS011;38420;53.150;6.370;2023-04-24T10:38:38;6.72;;;2.35;;
52508;SDS011;38420;53.150;6.370;2023-04-24T10:41:10;9.15;;;2.60;;
52508;SDS011;38420;53.150;6.370;2023-04-24T10:43:44;11.63;;;3.28;;
52508;SDS011;38420;53.150;6.370;2023-04-24T10:46:10;8.00;;;2.72;;
52508;SDS011;38420;53.150;6.370;2023-04-24T10:48:44;7.57;;;2.28;;
52508;SDS011;38420;53.150;6.370;2023-04-24T10:51:21;10.55;;;3.15;;
52508;SDS011;38420;53.150;6.370;2023-04-24T10:53:49;8.02;;;2.53;;
52508;SDS011;38420;53.150;6.370;2023-04-24T10:56:16;7.40;;;2.53;;
52508;SDS011;38420;53.150;6.370;2023-04-24T10:58:43;10.30;;;2.25;;
52508;SDS011;38420;53.150;6.370;2023-04-24T11:01:23;10.07;;;2.88;;
52508;SDS011;38420;53.150;6.370;2023-04-24T11:03:56;7.65;;;2.33;;
52508;SDS011;38420;53.150;6.370;2023-04-24T11:06:33;10.82;;;2.53;;
52508;SDS011;38420;53.150;6.370;2023-04-24T11:09:03;7.00;;;2.30;;
52508;SDS011;38420;53.150;6.370;2023-04-24T11:11:33;8.38;;;2.20;;
52508;SDS011;38420;53.150;6.370;2023-04-24T11:14:02;7.43;;;2.08;;
52508;SDS011;38420;53.150;6.370;2023-04-24T11:16:43;8.35;;;2.53;;
52508;SDS011;38420;53.150;6.370;2023-04-24T11:24:27;7.78;;;1.95;;
52508;SDS011;38420;53.150;6.370;2023-04-24T11:29:41;7.93;;;1.70;;
52508;SDS011;38420;53.150;6.370;2023-04-24T11:32:15;7.72;;;2.72;;
52508;SDS011;38420;53.150;6.370;2023-04-24T11:34:47;9.77;;;2.35;;
52508;SDS011;38420;53.150;6.370;2023-04-24T11:37:14;8.05;;;2.63;;
52508;SDS011;38420;53.150;6.370;2023-04-24T11:39:40;6.97;;;2.47;;
52508;SDS011;38420;53.150;6.370;2023-04-24T11:42:06;7.20;;;1.90;;
52508;SDS011;38420;53.150;6.370;2023-04-24T11:44:33;7.30;;;2.35;;
52508;SDS011;38420;53.150;6.370;2023-04-24T11:47:02;6.43;;;1.55;;
52508;SDS011;38420;53.150;6.370;2023-04-24T11:49:29;4.47;;;1.58;;
52508;SDS011;38420;53.150;6.370;2023-04-24T11:51:55;6.22;;;1.88;;
52508;SDS011;38420;53.150;6.370;2023-04-24T11:54:21;8.63;;;2.00;;
52508;SDS011;38420;53.150;6.370;2023-04-24T11:56:46;6.32;;;1.70;;
52508;SDS011;38420;53.150;6.370;2023-04-24T11:59:13;6.00;;;2.25;;
52508;SDS011;38420;53.150;6.370;2023-04-24T12:01:42;5.22;;;2.10;;
52508;SDS011;38420;53.150;6.370;2023-04-24T12:04:11;5.68;;;1.55;;
52508;SDS011;38420;53.150;6.370;2023-04-24T12:06:37;6.25;;;1.83;;
52508;SDS011;38420;53.150;6.370;2023-04-24T12:09:03;6.03;;;1.60;;
52508;SDS011;38420;53.150;6.370;2023-04-24T12:11:29;5.50;;;1.73;;
52508;SDS011;38420;53.150;6.370;2023-04-24T12:13:54;3.75;;;1.25;;
52508;SDS011;38420;53.150;6.370;2023-04-24T12:16:20;6.63;;;1.35;;
52508;SDS011;38420;53.150;6.370;2023-04-24T12:18:46;8.50;;;1.50;;
52508;SDS011;38420;53.150;6.370;2023-04-24T12:21:21;5.22;;;1.27;;
52508;SDS011;38420;53.150;6.370;2023-04-24T12:23:48;5.90;;;1.20;;
52508;SDS011;38420;53.150;6.370;2023-04-24T12:26:16;3.92;;;1.33;;
52508;SDS011;38420;53.150;6.370;2023-04-24T12:28:45;5.07;;;1.30;;
52508;SDS011;38420;53.150;6.370;2023-04-24T12:31:13;5.72;;;1.25;;
52508;SDS011;38420;53.150;6.370;2023-04-24T12:33:38;8.43;;;2.22;;
52508;SDS011;38420;53.150;6.370;2023-04-24T12:36:04;4.18;;;1.52;;
52508;SDS011;38420;53.150;6.370;2023-04-24T12:38:31;5.30;;;1.80;;
52508;SDS011;38420;53.150;6.370;2023-04-24T12:41:14;11.45;;;1.75;;
52508;SDS011;38420;53.150;6.370;2023-04-24T12:43:50;8.93;;;2.03;;
52508;SDS011;38420;53.150;6.370;2023-04-24T12:46:20;6.43;;;1.52;;
52508;SDS011;38420;53.150;6.370;2023-04-24T12:48:45;7.60;;;1.90;;
52508;SDS011;38420;53.150;6.370;2023-04-24T12:51:11;7.70;;;1.63;;
52508;SDS011;38420;53.150;6.370;2023-04-24T12:53:37;5.88;;;1.60;;
52508;SDS011;38420;53.150;6.370;2023-04-24T12:56:02;6.20;;;1.73;;
52508;SDS011;38420;53.150;6.370;2023-04-24T12:58:28;3.78;;;1.20;;
52508;SDS011;38420;53.150;6.370;2023-04-24T13:00:54;8.25;;;2.35;;
52508;SDS011;38420;53.150;6.370;2023-04-24T13:03:19;7.38;;;1.30;;
52508;SDS011;38420;53.150;6.370;2023-04-24T13:05:45;2.33;;;0.80;;
52508;SDS011;38420;53.150;6.370;2023-04-24T13:08:11;3.22;;;0.90;;
52508;SDS011;38420;53.150;6.370;2023-04-24T13:10:37;4.57;;;0.77;;
52508;SDS011;38420;53.150;6.370;2023-04-24T13:13:04;5.97;;;1.08;;
52508;SDS011;38420;53.150;6.370;2023-04-24T13:15:29;6.00;;;0.85;;
52508;SDS011;38420;53.150;6.370;2023-04-24T13:17:55;3.20;;;0.88;;
52508;SDS011;38420;53.150;6.370;2023-04-24T13:20:21;3.42;;;0.80;;
52508;SDS011;38420;53.150;6.370;2023-04-24T13:22:46;7.43;;;0.90;;
52508;SDS011;38420;53.150;6.370;2023-04-24T13:25:12;5.90;;;1.10;;
52508;SDS011;38420;53.150;6.370;2023-04-24T13:27:38;6.15;;;0.88;;
52508;SDS011;38420;53.150;6.370;2023-04-24T13:30:04;6.07;;;1.25;;
52508;SDS011;38420;53.150;6.370;2023-04-24T13:32:31;4.60;;;1.25;;
52508;SDS011;38420;53.150;6.370;2023-04-24T13:34:58;4.53;;;1.38;;
52508;SDS011;38420;53.150;6.370;2023-04-24T13:37:23;4.72;;;1.13;;
52508;SDS011;38420;53.150;6.370;2023-04-24T13:39:49;6.18;;;0.95;;
52508;SDS011;38420;53.150;6.370;2023-04-24T13:42:15;5.68;;;1.20;;
52508;SDS011;38420;53.150;6.370;2023-04-24T13:44:41;3.45;;;0.90;;
52508;SDS011;38420;53.150;6.370;2023-04-24T13:47:07;3.53;;;0.80;;
52508;SDS011;38420;53.150;6.370;2023-04-24T13:49:32;6.40;;;1.52;;
52508;SDS011;38420;53.150;6.370;2023-04-24T13:51:58;3.50;;;0.88;;
52508;SDS011;38420;53.150;6.370;2023-04-24T13:54:23;3.70;;;1.42;;
52508;SDS011;38420;53.150;6.370;2023-04-24T13:56:50;8.43;;;1.33;;
52508;SDS011;38420;53.150;6.370;2023-04-24T13:59:16;8.93;;;2.60;;
52508;SDS011;38420;53.150;6.370;2023-04-24T14:01:43;7.00;;;1.88;;
52508;SDS011;38420;53.150;6.370;2023-04-24T14:04:10;6.65;;;1.95;;
52508;SDS011;38420;53.150;6.370;2023-04-24T14:06:36;7.38;;;2.05;;
52508;SDS011;38420;53.150;6.370;2023-04-24T14:09:01;10.65;;;2.85;;
52508;SDS011;38420;53.150;6.370;2023-04-24T14:11:27;11.82;;;2.75;;
52508;SDS011;38420;53.150;6.370;2023-04-24T14:13:53;9.52;;;2.42;;
52508;SDS011;38420;53.150;6.370;2023-04-24T14:16:21;11.95;;;3.45;;
52508;SDS011;38420;53.150;6.370;2023-04-24T14:18:47;8.63;;;2.60;;
52508;SDS011;38420;53.150;6.370;2023-04-24T14:21:12;10.63;;;2.70;;
52508;SDS011;38420;53.150;6.370;2023-04-24T14:23:38;14.88;;;2.50;;
52508;SDS011;38420;53.150;6.370;2023-04-24T14:26:03;8.07;;;2.15;;
52508;SDS011;38420;53.150;6.370;2023-04-24T14:28:29;8.20;;;2.00;;
52508;SDS011;38420;53.150;6.370;2023-04-24T14:30:55;8.85;;;2.33;;
52508;SDS011;38420;53.150;6.370;2023-04-24T14:33:21;10.77;;;2.55;;
52508;SDS011;38420;53.150;6.370;2023-04-24T14:35:46;8.65;;;2.50;;
52508;SDS011;38420;53.150;6.370;2023-04-24T14:38:12;10.60;;;2.90;;
52508;SDS011;38420;53.150;6.370;2023-04-24T14:40:38;9.30;;;2.53;;
52508;SDS011;38420;53.150;6.370;2023-04-24T14:43:03;8.63;;;2.75;;
52508;SDS011;38420;53.150;6.370;2023-04-24T14:45:29;9.77;;;2.80;;